sensor_id;sensor_type;location;lat;lon;timestamp;P1;durP1;ratioP1;P2;durP2;ratioP2
60318;SDS011;46163;52.306;5.634;2022-08-21T00:01:02;0.65;;;0.63;;
60318;SDS011;46163;52.306;5.634;2022-08-21T00:03:45;0.68;;;0.68;;
60318;SDS011;46163;52.306;5.634;2022-08-21T00:06:13;1.23;;;0.80;;
60318;SDS011;46163;52.306;5.634;2022-08-21T00:11:42;0.60;;;0.60;;
60318;SDS011;46163;52.306;5.634;2022-08-21T00:14:14;0.80;;;0.80;;
60318;SDS011;46163;52.306;5.634;2022-08-21T00:17:02;0.65;;;0.65;;
60318;SDS011;46163;52.306;5.634;2022-08-21T00:19:31;0.95;;;0.60;;
60318;SDS011;46163;52.306;5.634;2022-08-21T00:22:03;0.80;;;0.80;;
60318;SDS011;46163;52.306;5.634;2022-08-21T00:24:35;0.80;;;0.80;;
60318;SDS011;46163;52.306;5.634;2022-08-21T00:27:01;0.80;;;0.80;;
60318;SDS011;46163;52.306;5.634;2022-08-21T00:29:27;1.13;;;0.77;;
60318;SDS011;46163;52.306;5.634;2022-08-21T00:31:55;0.70;;;0.70;;
60318;SDS011;46163;52.306;5.634;2022-08-21T00:34:25;0.43;;;0.43;;
60318;SDS011;46163;52.306;5.634;2022-08-21T00:36:51;0.60;;;0.60;;
60318;SDS011;46163;52.306;5.634;2022-08-21T00:39:22;0.77;;;0.77;;
60318;SDS011;46163;52.306;5.634;2022-08-21T00:41:52;1.17;;;0.85;;
60318;SDS011;46163;52.306;5.634;2022-08-21T00:44:18;0.52;;;0.52;;
60318;SDS011;46163;52.306;5.634;2022-08-21T00:46:56;0.73;;;0.73;;
60318;SDS011;46163;52.306;5.634;2022-08-21T00:49:22;0.75;;;0.75;;
60318;SDS011;46163;52.306;5.634;2022-08-21T00:51:51;0.77;;;0.77;;
60318;SDS011;46163;52.306;5.634;2022-08-21T00:54:24;0.60;;;0.60;;
60318;SDS011;46163;52.306;5.634;2022-08-21T00:57:03;0.70;;;0.65;;
60318;SDS011;46163;52.306;5.634;2022-08-21T00:59:32;0.40;;;0.40;;
60318;SDS011;46163;52.306;5.634;2022-08-21T01:02:06;0.45;;;0.45;;
60318;SDS011;46163;52.306;5.634;2022-08-21T01:04:34;0.73;;;0.73;;
60318;SDS011;46163;52.306;5.634;2022-08-21T01:10:00;0.53;;;0.53;;
60318;SDS011;46163;52.306;5.634;2022-08-21T01:12:46;0.52;;;0.52;;
60318;SDS011;46163;52.306;5.634;2022-08-21T01:15:15;0.50;;;0.50;;
60318;SDS011;46163;52.306;5.634;2022-08-21T01:17:41;0.40;;;0.40;;
60318;SDS011;46163;52.306;5.634;2022-08-21T01:20:09;0.50;;;0.50;;
60318;SDS011;46163;52.306;5.634;2022-08-21T01:22:38;0.43;;;0.43;;
60318;SDS011;46163;52.306;5.634;2022-08-21T01:25:12;0.40;;;0.40;;
60318;SDS011;46163;52.306;5.634;2022-08-21T01:27:45;0.40;;;0.40;;
60318;SDS011;46163;52.306;5.634;2022-08-21T01:30:18;0.73;;;0.73;;
60318;SDS011;46163;52.306;5.634;2022-08-21T01:32:51;0.90;;;0.70;;
60318;SDS011;46163;52.306;5.634;2022-08-21T01:35:19;0.40;;;0.40;;
60318;SDS011;46163;52.306;5.634;2022-08-21T01:37:45;0.60;;;0.60;;
60318;SDS011;46163;52.306;5.634;2022-08-21T01:40:14;1.02;;;0.60;;
60318;SDS011;46163;52.306;5.634;2022-08-21T01:42:44;0.65;;;0.65;;
60318;SDS011;46163;52.306;5.634;2022-08-21T01:45:15;0.45;;;0.45;;
60318;SDS011;46163;52.306;5.634;2022-08-21T01:47:41;0.52;;;0.50;;
60318;SDS011;46163;52.306;5.634;2022-08-21T01:50:14;0.68;;;0.68;;
60318;SDS011;46163;52.306;5.634;2022-08-21T01:52:55;0.65;;;0.65;;
60318;SDS011;46163;52.306;5.634;2022-08-21T01:55:25;0.80;;;0.80;;
60318;SDS011;46163;52.306;5.634;2022-08-21T01:57:56;0.60;;;0.60;;
60318;SDS011;46163;52.306;5.634;2022-08-21T02:00:23;0.60;;;0.60;;
60318;SDS011;46163;52.306;5.634;2022-08-21T02:02:51;0.47;;;0.47;;
60318;SDS011;46163;52.306;5.634;2022-08-21T02:05:19;0.52;;;0.52;;
60318;SDS011;46163;52.306;5.634;2022-08-21T02:07:46;0.63;;;0.63;;
60318;SDS011;46163;52.306;5.634;2022-08-21T02:10:16;0.43;;;0.38;;
60318;SDS011;46163;52.306;5.634;2022-08-21T02:12:49;0.60;;;0.60;;
60318;SDS011;46163;52.306;5.634;2022-08-21T02:15:15;0.70;;;0.60;;
60318;SDS011;46163;52.306;5.634;2022-08-21T02:17:48;0.63;;;0.60;;
60318;SDS011;46163;52.306;5.634;2022-08-21T02:20:31;0.50;;;0.50;;
60318;SDS011;46163;52.306;5.634;2022-08-21T02:23:02;0.70;;;0.70;;
60318;SDS011;46163;52.306;5.634;2022-08-21T02:25:29;1.77;;;0.87;;
60318;SDS011;46163;52.306;5.634;2022-08-21T02:27:58;0.80;;;0.80;;
60318;SDS011;46163;52.306;5.634;2022-08-21T02:30:30;0.55;;;0.55;;
60318;SDS011;46163;52.306;5.634;2022-08-21T02:32:59;0.57;;;0.57;;
60318;SDS011;46163;52.306;5.634;2022-08-21T02:35:26;0.50;;;0.50;;
60318;SDS011;46163;52.306;5.634;2022-08-21T02:37:53;0.50;;;0.50;;
60318;SDS011;46163;52.306;5.634;2022-08-21T02:40:26;0.73;;;0.73;;
60318;SDS011;46163;52.306;5.634;2022-08-21T02:42:56;0.40;;;0.40;;
60318;SDS011;46163;52.306;5.634;2022-08-21T02:45:23;0.57;;;0.57;;
60318;SDS011;46163;52.306;5.634;2022-08-21T02:47:49;0.70;;;0.70;;
60318;SDS011;46163;52.306;5.634;2022-08-21T02:50:20;0.70;;;0.70;;
60318;SDS011;46163;52.306;5.634;2022-08-21T02:52:50;0.55;;;0.50;;
60318;SDS011;46163;52.306;5.634;2022-08-21T02:55:17;0.50;;;0.50;;
60318;SDS011;46163;52.306;5.634;2022-08-21T02:57:46;0.50;;;0.50;;
60318;SDS011;46163;52.306;5.634;2022-08-21T03:00:16;0.50;;;0.50;;
60318;SDS011;46163;52.306;5.634;2022-08-21T03:02:45;0.30;;;0.30;;
60318;SDS011;46163;52.306;5.634;2022-08-21T03:07:42;0.50;;;0.35;;
60318;SDS011;46163;52.306;5.634;2022-08-21T03:10:12;0.55;;;0.55;;
60318;SDS011;46163;52.306;5.634;2022-08-21T03:12:40;0.45;;;0.45;;
60318;SDS011;46163;52.306;5.634;2022-08-21T03:15:07;0.70;;;0.70;;
60318;SDS011;46163;52.306;5.634;2022-08-21T03:17:36;0.47;;;0.47;;
60318;SDS011;46163;52.306;5.634;2022-08-21T03:22:33;1.17;;;0.80;;
60318;SDS011;46163;52.306;5.634;2022-08-21T03:24:59;0.60;;;0.60;;
60318;SDS011;46163;52.306;5.634;2022-08-21T03:27:25;0.50;;;0.50;;
60318;SDS011;46163;52.306;5.634;2022-08-21T03:29:55;0.50;;;0.50;;
60318;SDS011;46163;52.306;5.634;2022-08-21T03:32:22;0.70;;;0.70;;
60318;SDS011;46163;52.306;5.634;2022-08-21T03:34:48;0.60;;;0.60;;
60318;SDS011;46163;52.306;5.634;2022-08-21T03:37:14;0.70;;;0.70;;
60318;SDS011;46163;52.306;5.634;2022-08-21T03:39:40;0.50;;;0.50;;
60318;SDS011;46163;52.306;5.634;2022-08-21T03:42:11;0.60;;;0.60;;
60318;SDS011;46163;52.306;5.634;2022-08-21T03:44:37;0.82;;;0.82;;
60318;SDS011;46163;52.306;5.634;2022-08-21T03:47:04;0.85;;;0.82;;
60318;SDS011;46163;52.306;5.634;2022-08-21T03:49:32;0.60;;;0.60;;
60318;SDS011;46163;52.306;5.634;2022-08-21T03:52:01;0.55;;;0.55;;
60318;SDS011;46163;52.306;5.634;2022-08-21T03:54:30;0.60;;;0.60;;
60318;SDS011;46163;52.306;5.634;2022-08-21T03:56:56;0.80;;;0.80;;
60318;SDS011;46163;52.306;5.634;2022-08-21T03:59:25;0.60;;;0.60;;
60318;SDS011;46163;52.306;5.634;2022-08-21T04:01:54;0.55;;;0.55;;
60318;SDS011;46163;52.306;5.634;2022-08-21T04:04:23;0.70;;;0.70;;
60318;SDS011;46163;52.306;5.634;2022-08-21T04:06:56;0.52;;;0.52;;
60318;SDS011;46163;52.306;5.634;2022-08-21T04:09:23;0.70;;;0.70;;
60318;SDS011;46163;52.306;5.634;2022-08-21T04:11:49;0.40;;;0.40;;
60318;SDS011;46163;52.306;5.634;2022-08-21T04:14:17;0.80;;;0.70;;
60318;SDS011;46163;52.306;5.634;2022-08-21T04:16:43;1.02;;;0.95;;
60318;SDS011;46163;52.306;5.634;2022-08-21T04:19:09;0.45;;;0.45;;
60318;SDS011;46163;52.306;5.634;2022-08-21T04:21:38;0.65;;;0.65;;
60318;SDS011;46163;52.306;5.634;2022-08-21T04:24:05;0.47;;;0.47;;
60318;SDS011;46163;52.306;5.634;2022-08-21T04:26:32;0.68;;;0.68;;
60318;SDS011;46163;52.306;5.634;2022-08-21T04:29:00;0.60;;;0.60;;
60318;SDS011;46163;52.306;5.634;2022-08-21T04:31:26;0.68;;;0.68;;
60318;SDS011;46163;52.306;5.634;2022-08-21T04:33:53;0.60;;;0.60;;
60318;SDS011;46163;52.306;5.634;2022-08-21T04:36:20;0.50;;;0.50;;
60318;SDS011;46163;52.306;5.634;2022-08-21T04:41:18;0.65;;;0.65;;
60318;SDS011;46163;52.306;5.634;2022-08-21T04:43:43;0.70;;;0.70;;
60318;SDS011;46163;52.306;5.634;2022-08-21T04:46:11;0.60;;;0.60;;
60318;SDS011;46163;52.306;5.634;2022-08-21T04:48:40;0.60;;;0.60;;
60318;SDS011;46163;52.306;5.634;2022-08-21T04:53:37;0.68;;;0.65;;
60318;SDS011;46163;52.306;5.634;2022-08-21T04:56:19;0.73;;;0.73;;
60318;SDS011;46163;52.306;5.634;2022-08-21T04:58:54;0.70;;;0.70;;
60318;SDS011;46163;52.306;5.634;2022-08-21T05:01:25;0.63;;;0.63;;
60318;SDS011;46163;52.306;5.634;2022-08-21T05:03:56;0.68;;;0.60;;
60318;SDS011;46163;52.306;5.634;2022-08-21T05:06:24;0.77;;;0.77;;
60318;SDS011;46163;52.306;5.634;2022-08-21T05:08:51;0.60;;;0.60;;
60318;SDS011;46163;52.306;5.634;2022-08-21T05:11:20;0.55;;;0.55;;
60318;SDS011;46163;52.306;5.634;2022-08-21T05:13:50;0.65;;;0.65;;
60318;SDS011;46163;52.306;5.634;2022-08-21T05:16:19;0.50;;;0.50;;
60318;SDS011;46163;52.306;5.634;2022-08-21T05:18:47;1.00;;;0.80;;
60318;SDS011;46163;52.306;5.634;2022-08-21T05:21:15;0.77;;;0.77;;
60318;SDS011;46163;52.306;5.634;2022-08-21T05:23:41;0.52;;;0.52;;
60318;SDS011;46163;52.306;5.634;2022-08-21T05:26:07;0.70;;;0.70;;
60318;SDS011;46163;52.306;5.634;2022-08-21T05:28:43;0.52;;;0.52;;
60318;SDS011;46163;52.306;5.634;2022-08-21T05:31:11;0.70;;;0.70;;
60318;SDS011;46163;52.306;5.634;2022-08-21T05:33:39;0.70;;;0.70;;
60318;SDS011;46163;52.306;5.634;2022-08-21T05:36:07;0.60;;;0.60;;
60318;SDS011;46163;52.306;5.634;2022-08-21T05:38:32;0.70;;;0.70;;
60318;SDS011;46163;52.306;5.634;2022-08-21T05:41:00;0.60;;;0.60;;
60318;SDS011;46163;52.306;5.634;2022-08-21T05:43:30;0.80;;;0.80;;
60318;SDS011;46163;52.306;5.634;2022-08-21T05:45:57;0.85;;;0.85;;
60318;SDS011;46163;52.306;5.634;2022-08-21T05:48:23;0.52;;;0.52;;
60318;SDS011;46163;52.306;5.634;2022-08-21T05:50:50;0.70;;;0.70;;
60318;SDS011;46163;52.306;5.634;2022-08-21T05:53:17;0.75;;;0.75;;
60318;SDS011;46163;52.306;5.634;2022-08-21T05:55:45;0.65;;;0.65;;
60318;SDS011;46163;52.306;5.634;2022-08-21T05:58:13;0.60;;;0.60;;
60318;SDS011;46163;52.306;5.634;2022-08-21T06:00:42;0.43;;;0.43;;
60318;SDS011;46163;52.306;5.634;2022-08-21T06:03:16;0.60;;;0.60;;
60318;SDS011;46163;52.306;5.634;2022-08-21T06:05:46;1.60;;;0.70;;
60318;SDS011;46163;52.306;5.634;2022-08-21T06:08:14;0.50;;;0.50;;
60318;SDS011;46163;52.306;5.634;2022-08-21T06:10:41;0.60;;;0.60;;
60318;SDS011;46163;52.306;5.634;2022-08-21T06:13:07;1.00;;;0.90;;
60318;SDS011;46163;52.306;5.634;2022-08-21T06:15:33;0.73;;;0.52;;
60318;SDS011;46163;52.306;5.634;2022-08-21T06:17:59;0.93;;;0.70;;
60318;SDS011;46163;52.306;5.634;2022-08-21T06:20:27;1.25;;;0.70;;
60318;SDS011;46163;52.306;5.634;2022-08-21T06:22:53;0.68;;;0.68;;
60318;SDS011;46163;52.306;5.634;2022-08-21T06:25:19;0.82;;;0.82;;
60318;SDS011;46163;52.306;5.634;2022-08-21T06:27:44;0.57;;;0.57;;
60318;SDS011;46163;52.306;5.634;2022-08-21T06:32:43;0.82;;;0.60;;
60318;SDS011;46163;52.306;5.634;2022-08-21T06:35:08;0.60;;;0.60;;
60318;SDS011;46163;52.306;5.634;2022-08-21T06:37:36;0.50;;;0.50;;
60318;SDS011;46163;52.306;5.634;2022-08-21T06:40:03;0.40;;;0.40;;
60318;SDS011;46163;52.306;5.634;2022-08-21T06:42:30;0.45;;;0.45;;
60318;SDS011;46163;52.306;5.634;2022-08-21T06:44:58;0.70;;;0.70;;
60318;SDS011;46163;52.306;5.634;2022-08-21T06:47:30;0.60;;;0.60;;
60318;SDS011;46163;52.306;5.634;2022-08-21T06:52:23;0.80;;;0.80;;
60318;SDS011;46163;52.306;5.634;2022-08-21T06:54:49;0.80;;;0.63;;
60318;SDS011;46163;52.306;5.634;2022-08-21T06:57:15;0.60;;;0.60;;
60318;SDS011;46163;52.306;5.634;2022-08-21T06:59:40;0.57;;;0.57;;
60318;SDS011;46163;52.306;5.634;2022-08-21T07:02:05;0.52;;;0.52;;
60318;SDS011;46163;52.306;5.634;2022-08-21T07:04:34;0.52;;;0.50;;
60318;SDS011;46163;52.306;5.634;2022-08-21T07:07:01;0.60;;;0.60;;
60318;SDS011;46163;52.306;5.634;2022-08-21T07:09:27;0.88;;;0.70;;
60318;SDS011;46163;52.306;5.634;2022-08-21T07:11:54;2.60;;;0.50;;
60318;SDS011;46163;52.306;5.634;2022-08-21T07:14:21;0.60;;;0.60;;
60318;SDS011;46163;52.306;5.634;2022-08-21T07:16:50;0.68;;;0.68;;
60318;SDS011;46163;52.306;5.634;2022-08-21T07:19:16;0.57;;;0.57;;
60318;SDS011;46163;52.306;5.634;2022-08-21T07:21:42;0.50;;;0.50;;
60318;SDS011;46163;52.306;5.634;2022-08-21T07:24:08;0.47;;;0.47;;
60318;SDS011;46163;52.306;5.634;2022-08-21T07:26:35;0.50;;;0.50;;
60318;SDS011;46163;52.306;5.634;2022-08-21T07:31:31;0.70;;;0.70;;
60318;SDS011;46163;52.306;5.634;2022-08-21T07:36:25;1.48;;;0.50;;
60318;SDS011;46163;52.306;5.634;2022-08-21T07:38:50;0.55;;;0.55;;
60318;SDS011;46163;52.306;5.634;2022-08-21T07:41:19;0.70;;;0.70;;
60318;SDS011;46163;52.306;5.634;2022-08-21T07:43:50;0.75;;;0.60;;
60318;SDS011;46163;52.306;5.634;2022-08-21T07:46:18;0.60;;;0.60;;
60318;SDS011;46163;52.306;5.634;2022-08-21T07:48:44;0.50;;;0.50;;
60318;SDS011;46163;52.306;5.634;2022-08-21T07:51:10;0.60;;;0.60;;
60318;SDS011;46163;52.306;5.634;2022-08-21T07:53:40;1.67;;;0.57;;
60318;SDS011;46163;52.306;5.634;2022-08-21T07:56:06;0.55;;;0.55;;
60318;SDS011;46163;52.306;5.634;2022-08-21T07:58:33;0.80;;;0.80;;
60318;SDS011;46163;52.306;5.634;2022-08-21T08:01:01;1.42;;;0.85;;
60318;SDS011;46163;52.306;5.634;2022-08-21T08:05:55;0.63;;;0.60;;
60318;SDS011;46163;52.306;5.634;2022-08-21T08:08:24;1.00;;;0.88;;
60318;SDS011;46163;52.306;5.634;2022-08-21T08:10:52;0.60;;;0.60;;
60318;SDS011;46163;52.306;5.634;2022-08-21T08:13:19;1.17;;;0.75;;
60318;SDS011;46163;52.306;5.634;2022-08-21T08:18:12;1.42;;;1.00;;
60318;SDS011;46163;52.306;5.634;2022-08-21T08:20:38;2.58;;;1.00;;
60318;SDS011;46163;52.306;5.634;2022-08-21T08:23:07;4.32;;;1.50;;
60318;SDS011;46163;52.306;5.634;2022-08-21T08:25:35;5.30;;;1.67;;
60318;SDS011;46163;52.306;5.634;2022-08-21T08:28:00;2.42;;;1.45;;
60318;SDS011;46163;52.306;5.634;2022-08-21T08:30:27;4.40;;;1.80;;
60318;SDS011;46163;52.306;5.634;2022-08-21T08:32:53;4.13;;;1.67;;
60318;SDS011;46163;52.306;5.634;2022-08-21T08:35:18;2.55;;;1.60;;
60318;SDS011;46163;52.306;5.634;2022-08-21T08:37:44;3.13;;;1.85;;
60318;SDS011;46163;52.306;5.634;2022-08-21T08:40:14;4.55;;;1.98;;
60318;SDS011;46163;52.306;5.634;2022-08-21T08:42:50;4.68;;;1.88;;
60318;SDS011;46163;52.306;5.634;2022-08-21T08:45:18;5.07;;;1.83;;
60318;SDS011;46163;52.306;5.634;2022-08-21T08:47:50;2.95;;;1.60;;
60318;SDS011;46163;52.306;5.634;2022-08-21T08:50:33;6.93;;;2.00;;
60318;SDS011;46163;52.306;5.634;2022-08-21T08:53:04;4.65;;;1.83;;
60318;SDS011;46163;52.306;5.634;2022-08-21T08:55:39;3.03;;;1.80;;
60318;SDS011;46163;52.306;5.634;2022-08-21T08:58:07;4.90;;;1.80;;
60318;SDS011;46163;52.306;5.634;2022-08-21T09:00:47;4.15;;;1.70;;
60318;SDS011;46163;52.306;5.634;2022-08-21T09:03:17;4.07;;;1.83;;
60318;SDS011;46163;52.306;5.634;2022-08-21T09:05:47;4.05;;;1.70;;
60318;SDS011;46163;52.306;5.634;2022-08-21T09:11:02;7.90;;;1.92;;
60318;SDS011;46163;52.306;5.634;2022-08-21T09:17:13;20.02;;;2.05;;
60318;SDS011;46163;52.306;5.634;2022-08-21T09:25:15;4.30;;;1.52;;
60318;SDS011;46163;52.306;5.634;2022-08-21T09:27:44;5.28;;;1.60;;
60318;SDS011;46163;52.306;5.634;2022-08-21T09:30:12;2.90;;;1.35;;
60318;SDS011;46163;52.306;5.634;2022-08-21T09:32:38;3.90;;;1.60;;
60318;SDS011;46163;52.306;5.634;2022-08-21T09:35:10;2.92;;;1.85;;
60318;SDS011;46163;52.306;5.634;2022-08-21T09:37:57;3.25;;;1.70;;
60318;SDS011;46163;52.306;5.634;2022-08-21T09:45:42;3.13;;;1.75;;
60318;SDS011;46163;52.306;5.634;2022-08-21T09:48:12;4.05;;;1.60;;
60318;SDS011;46163;52.306;5.634;2022-08-21T09:50:51;3.33;;;1.50;;
60318;SDS011;46163;52.306;5.634;2022-08-21T09:53:30;4.45;;;1.70;;
60318;SDS011;46163;52.306;5.634;2022-08-21T09:56:02;2.72;;;1.30;;
60318;SDS011;46163;52.306;5.634;2022-08-21T09:58:49;5.25;;;1.63;;
60318;SDS011;46163;52.306;5.634;2022-08-21T10:01:18;4.15;;;1.48;;
60318;SDS011;46163;52.306;5.634;2022-08-21T10:04:03;3.28;;;1.60;;
60318;SDS011;46163;52.306;5.634;2022-08-21T10:06:34;17.35;;;1.70;;
60318;SDS011;46163;52.306;5.634;2022-08-21T10:09:06;5.75;;;1.60;;
60318;SDS011;46163;52.306;5.634;2022-08-21T10:11:36;3.03;;;1.40;;
60318;SDS011;46163;52.306;5.634;2022-08-21T10:14:07;2.50;;;1.48;;
60318;SDS011;46163;52.306;5.634;2022-08-21T10:19:54;4.93;;;1.50;;
60318;SDS011;46163;52.306;5.634;2022-08-21T10:22:31;4.47;;;1.90;;
60318;SDS011;46163;52.306;5.634;2022-08-21T10:30:36;5.85;;;1.60;;
60318;SDS011;46163;52.306;5.634;2022-08-21T10:43:50;5.03;;;1.60;;
60318;SDS011;46163;52.306;5.634;2022-08-21T10:46:37;4.05;;;1.60;;
60318;SDS011;46163;52.306;5.634;2022-08-21T10:49:15;4.15;;;1.58;;
60318;SDS011;46163;52.306;5.634;2022-08-21T11:00:23;5.18;;;1.60;;
60318;SDS011;46163;52.306;5.634;2022-08-21T11:05:46;5.25;;;1.83;;
60318;SDS011;46163;52.306;5.634;2022-08-21T11:08:24;4.28;;;1.70;;
60318;SDS011;46163;52.306;5.634;2022-08-21T11:11:15;4.60;;;1.48;;
60318;SDS011;46163;52.306;5.634;2022-08-21T11:13:51;4.85;;;1.63;;
60318;SDS011;46163;52.306;5.634;2022-08-21T11:16:40;4.85;;;1.90;;
60318;SDS011;46163;52.306;5.634;2022-08-21T11:24:52;6.97;;;1.73;;
60318;SDS011;46163;52.306;5.634;2022-08-21T11:27:42;2.92;;;1.38;;
60318;SDS011;46163;52.306;5.634;2022-08-21T11:30:15;7.57;;;1.98;;
60318;SDS011;46163;52.306;5.634;2022-08-21T11:41:40;4.05;;;1.80;;
60318;SDS011;46163;52.306;5.634;2022-08-21T11:44:37;6.82;;;1.80;;
60318;SDS011;46163;52.306;5.634;2022-08-21T11:47:33;4.00;;;1.85;;
60318;SDS011;46163;52.306;5.634;2022-08-21T11:50:20;4.75;;;1.60;;
60318;SDS011;46163;52.306;5.634;2022-08-21T11:55:32;4.38;;;1.80;;
60318;SDS011;46163;52.306;5.634;2022-08-21T11:58:31;6.00;;;2.00;;
60318;SDS011;46163;52.306;5.634;2022-08-21T12:01:04;2.90;;;1.38;;
60318;SDS011;46163;52.306;5.634;2022-08-21T12:03:37;4.93;;;1.83;;
60318;SDS011;46163;52.306;5.634;2022-08-21T12:06:10;7.60;;;1.88;;
60318;SDS011;46163;52.306;5.634;2022-08-21T12:08:43;3.90;;;1.83;;
60318;SDS011;46163;52.306;5.634;2022-08-21T12:11:24;3.88;;;1.70;;
60318;SDS011;46163;52.306;5.634;2022-08-21T12:14:11;7.15;;;2.00;;
60318;SDS011;46163;52.306;5.634;2022-08-21T12:16:42;6.32;;;1.92;;
60318;SDS011;46163;52.306;5.634;2022-08-21T12:26:53;3.80;;;1.58;;
60318;SDS011;46163;52.306;5.634;2022-08-21T12:29:22;3.40;;;1.63;;
60318;SDS011;46163;52.306;5.634;2022-08-21T12:31:56;5.88;;;1.70;;
60318;SDS011;46163;52.306;5.634;2022-08-21T12:34:28;7.53;;;1.80;;
60318;SDS011;46163;52.306;5.634;2022-08-21T12:37:02;2.22;;;1.73;;
60318;SDS011;46163;52.306;5.634;2022-08-21T12:39:34;4.90;;;1.73;;
60318;SDS011;46163;52.306;5.634;2022-08-21T12:45:02;2.83;;;1.70;;
60318;SDS011;46163;52.306;5.634;2022-08-21T12:47:47;2.63;;;1.52;;
60318;SDS011;46163;52.306;5.634;2022-08-21T12:50:20;2.97;;;1.60;;
60318;SDS011;46163;52.306;5.634;2022-08-21T12:53:05;2.28;;;1.42;;
60318;SDS011;46163;52.306;5.634;2022-08-21T12:55:35;3.08;;;1.70;;
60318;SDS011;46163;52.306;5.634;2022-08-21T12:58:06;2.60;;;1.40;;
60318;SDS011;46163;52.306;5.634;2022-08-21T13:00:34;1.70;;;1.25;;
60318;SDS011;46163;52.306;5.634;2022-08-21T13:03:00;4.82;;;2.28;;
60318;SDS011;46163;52.306;5.634;2022-08-21T13:05:30;2.20;;;1.30;;
60318;SDS011;46163;52.306;5.634;2022-08-21T13:08:04;2.83;;;1.58;;
60318;SDS011;46163;52.306;5.634;2022-08-21T13:10:33;3.35;;;1.60;;
60318;SDS011;46163;52.306;5.634;2022-08-21T13:13:01;4.05;;;1.60;;
60318;SDS011;46163;52.306;5.634;2022-08-21T13:15:36;2.95;;;1.63;;
60318;SDS011;46163;52.306;5.634;2022-08-21T13:18:06;1.58;;;1.45;;
60318;SDS011;46163;52.306;5.634;2022-08-21T13:20:36;3.53;;;1.80;;
60318;SDS011;46163;52.306;5.634;2022-08-21T13:23:28;2.38;;;1.48;;
60318;SDS011;46163;52.306;5.634;2022-08-21T13:25:55;3.05;;;1.30;;
60318;SDS011;46163;52.306;5.634;2022-08-21T13:28:21;2.75;;;1.48;;
60318;SDS011;46163;52.306;5.634;2022-08-21T13:30:48;1.83;;;1.35;;
60318;SDS011;46163;52.306;5.634;2022-08-21T13:33:22;3.17;;;1.70;;
60318;SDS011;46163;52.306;5.634;2022-08-21T13:38:26;4.80;;;1.60;;
60318;SDS011;46163;52.306;5.634;2022-08-21T13:43:44;4.22;;;1.75;;
60318;SDS011;46163;52.306;5.634;2022-08-21T13:46:12;1.50;;;1.40;;
60318;SDS011;46163;52.306;5.634;2022-08-21T13:48:41;2.67;;;1.70;;
60318;SDS011;46163;52.306;5.634;2022-08-21T13:51:08;2.50;;;1.38;;
60318;SDS011;46163;52.306;5.634;2022-08-21T13:56:20;2.30;;;1.50;;
60318;SDS011;46163;52.306;5.634;2022-08-21T13:58:50;2.75;;;1.60;;
60318;SDS011;46163;52.306;5.634;2022-08-21T14:01:24;2.85;;;1.35;;
60318;SDS011;46163;52.306;5.634;2022-08-21T14:04:22;1.95;;;1.40;;
60318;SDS011;46163;52.306;5.634;2022-08-21T14:06:50;8.80;;;1.48;;
60318;SDS011;46163;52.306;5.634;2022-08-21T14:09:25;3.63;;;1.65;;
60318;SDS011;46163;52.306;5.634;2022-08-21T14:11:58;2.50;;;1.38;;
60318;SDS011;46163;52.306;5.634;2022-08-21T14:14:31;3.28;;;1.30;;
60318;SDS011;46163;52.306;5.634;2022-08-21T14:17:25;8.35;;;1.70;;
60318;SDS011;46163;52.306;5.634;2022-08-21T14:19:55;1.95;;;1.52;;
60318;SDS011;46163;52.306;5.634;2022-08-21T14:22:41;7.82;;;1.40;;
60318;SDS011;46163;52.306;5.634;2022-08-21T14:25:14;3.88;;;1.40;;
60318;SDS011;46163;52.306;5.634;2022-08-21T14:30:38;2.90;;;1.40;;
60318;SDS011;46163;52.306;5.634;2022-08-21T14:33:08;1.30;;;1.20;;
60318;SDS011;46163;52.306;5.634;2022-08-21T14:35:36;1.10;;;1.10;;
60318;SDS011;46163;52.306;5.634;2022-08-21T14:38:02;3.83;;;1.23;;
60318;SDS011;46163;52.306;5.634;2022-08-21T14:40:36;2.90;;;1.30;;
60318;SDS011;46163;52.306;5.634;2022-08-21T14:43:02;1.13;;;1.00;;
60318;SDS011;46163;52.306;5.634;2022-08-21T14:45:29;1.88;;;1.10;;
60318;SDS011;46163;52.306;5.634;2022-08-21T14:47:56;1.88;;;1.00;;
60318;SDS011;46163;52.306;5.634;2022-08-21T14:50:22;1.75;;;1.10;;
60318;SDS011;46163;52.306;5.634;2022-08-21T14:52:50;6.15;;;1.40;;
60318;SDS011;46163;52.306;5.634;2022-08-21T14:55:20;3.67;;;1.60;;
60318;SDS011;46163;52.306;5.634;2022-08-21T14:57:50;3.47;;;1.95;;
60318;SDS011;46163;52.306;5.634;2022-08-21T15:00:18;3.83;;;1.48;;
60318;SDS011;46163;52.306;5.634;2022-08-21T15:02:50;6.70;;;1.83;;
60318;SDS011;46163;52.306;5.634;2022-08-21T15:05:17;7.50;;;1.52;;
60318;SDS011;46163;52.306;5.634;2022-08-21T15:07:45;3.92;;;1.60;;
60318;SDS011;46163;52.306;5.634;2022-08-21T15:10:13;3.03;;;1.42;;
60318;SDS011;46163;52.306;5.634;2022-08-21T15:12:39;2.47;;;1.40;;
60318;SDS011;46163;52.306;5.634;2022-08-21T15:15:05;3.97;;;1.70;;
60318;SDS011;46163;52.306;5.634;2022-08-21T15:17:31;6.32;;;1.52;;
60318;SDS011;46163;52.306;5.634;2022-08-21T15:19:57;2.72;;;1.50;;
60318;SDS011;46163;52.306;5.634;2022-08-21T15:22:25;5.45;;;1.65;;
60318;SDS011;46163;52.306;5.634;2022-08-21T15:24:51;5.32;;;1.77;;
60318;SDS011;46163;52.306;5.634;2022-08-21T15:29:44;4.60;;;1.50;;
60318;SDS011;46163;52.306;5.634;2022-08-21T15:32:23;4.18;;;1.70;;
60318;SDS011;46163;52.306;5.634;2022-08-21T15:34:54;2.95;;;1.65;;
60318;SDS011;46163;52.306;5.634;2022-08-21T15:37:23;2.90;;;1.45;;
60318;SDS011;46163;52.306;5.634;2022-08-21T15:39:49;7.75;;;1.85;;
60318;SDS011;46163;52.306;5.634;2022-08-21T15:42:16;4.28;;;1.88;;
60318;SDS011;46163;52.306;5.634;2022-08-21T15:44:42;3.95;;;1.80;;
60318;SDS011;46163;52.306;5.634;2022-08-21T15:47:12;7.57;;;1.80;;
60318;SDS011;46163;52.306;5.634;2022-08-21T15:49:41;4.60;;;1.70;;
60318;SDS011;46163;52.306;5.634;2022-08-21T15:52:09;3.05;;;1.55;;
60318;SDS011;46163;52.306;5.634;2022-08-21T15:54:39;16.80;;;1.60;;
60318;SDS011;46163;52.306;5.634;2022-08-21T15:57:06;3.83;;;1.70;;
60318;SDS011;46163;52.306;5.634;2022-08-21T15:59:41;2.70;;;1.50;;
60318;SDS011;46163;52.306;5.634;2022-08-21T16:02:15;4.25;;;1.80;;
60318;SDS011;46163;52.306;5.634;2022-08-21T16:04:48;3.40;;;1.65;;
60318;SDS011;46163;52.306;5.634;2022-08-21T16:07:13;3.53;;;1.73;;
60318;SDS011;46163;52.306;5.634;2022-08-21T16:09:41;7.20;;;1.80;;
60318;SDS011;46163;52.306;5.634;2022-08-21T16:12:21;4.32;;;2.03;;
60318;SDS011;46163;52.306;5.634;2022-08-21T16:17:18;5.85;;;1.77;;
60318;SDS011;46163;52.306;5.634;2022-08-21T16:19:47;2.95;;;1.67;;
60318;SDS011;46163;52.306;5.634;2022-08-21T16:24:38;3.58;;;1.67;;
60318;SDS011;46163;52.306;5.634;2022-08-21T16:27:04;7.60;;;1.48;;
60318;SDS011;46163;52.306;5.634;2022-08-21T16:29:33;4.60;;;1.50;;
60318;SDS011;46163;52.306;5.634;2022-08-21T16:32:06;4.78;;;1.70;;
60318;SDS011;46163;52.306;5.634;2022-08-21T16:34:32;5.28;;;1.70;;
60318;SDS011;46163;52.306;5.634;2022-08-21T16:36:59;6.22;;;1.88;;
60318;SDS011;46163;52.306;5.634;2022-08-21T16:39:31;6.57;;;2.10;;
60318;SDS011;46163;52.306;5.634;2022-08-21T16:41:57;8.38;;;1.70;;
60318;SDS011;46163;52.306;5.634;2022-08-21T16:44:22;6.13;;;1.40;;
60318;SDS011;46163;52.306;5.634;2022-08-21T16:46:48;2.15;;;1.40;;
60318;SDS011;46163;52.306;5.634;2022-08-21T16:49:16;3.20;;;1.50;;
60318;SDS011;46163;52.306;5.634;2022-08-21T16:51:44;4.32;;;1.33;;
60318;SDS011;46163;52.306;5.634;2022-08-21T16:54:12;2.95;;;1.50;;
60318;SDS011;46163;52.306;5.634;2022-08-21T16:56:38;7.18;;;1.52;;
60318;SDS011;46163;52.306;5.634;2022-08-21T16:59:06;2.17;;;1.20;;
60318;SDS011;46163;52.306;5.634;2022-08-21T17:01:34;2.30;;;1.40;;
60318;SDS011;46163;52.306;5.634;2022-08-21T17:04:07;8.10;;;1.42;;
60318;SDS011;46163;52.306;5.634;2022-08-21T17:06:32;2.80;;;1.23;;
60318;SDS011;46163;52.306;5.634;2022-08-21T17:09:00;4.60;;;1.40;;
60318;SDS011;46163;52.306;5.634;2022-08-21T17:11:30;2.42;;;1.30;;